Time;durP1;ratioP1;P1;durP2;ratioP2;P2;SDS_P1;SDS_P2;PMS_P1;PMS_P2;Temp;Humidity;BMP_temperature;BMP_pressure;BME280_temperature;BME280_humidity;BME280_pressure;Samples;Min_cycle;Max_cycle;Signal;HPM_P1;HPM_P2
2022/09/21 00:01:57;;;;;;;0.38;0.22;;;11.60;99.90;;;;;;5034199;28;20050;-70
2022/09/21 00:04:22;;;;;;;0.57;0.57;;;11.60;99.90;;;;;;5027266;28;20045;-71
2022/09/21 00:06:48;;;;;;;0.68;0.68;;;11.50;99.90;;;;;;5028620;28;20128;-70
2022/09/21 00:09:14;;;;;;;2.28;0.55;;;11.50;99.90;;;;;;5041248;28;20049;-70
2022/09/21 00:11:39;;;;;;;0.10;0.10;;;11.50;99.90;;;;;;5023911;28;20037;-70
2022/09/21 00:14:09;;;;;;;0.25;0.25;;;11.50;99.90;;;;;;5026013;28;20099;-70
2022/09/21 00:16:36;;;;;;;0.10;0.10;;;11.50;99.90;;;;;;5026304;28;20114;-70
2022/09/21 00:19:02;;;;;;;0.10;0.10;;;11.60;99.90;;;;;;5015710;28;20049;-70
2022/09/21 00:21:28;;;;;;;0.10;0.10;;;11.60;99.90;;;;;;5010821;28;20165;-70
2022/09/21 00:23:54;;;;;;;0.15;0.15;;;11.60;99.90;;;;;;5016567;28;20045;-69
2022/09/21 00:26:22;;;;;;;0.20;0.20;;;11.50;99.90;;;;;;5033045;28;20085;-70
2022/09/21 00:28:53;;;;;;;3.40;1.00;;;11.50;99.90;;;;;;5037059;28;20675;-70
2022/09/21 00:31:19;;;;;;;0.10;0.10;;;11.50;99.90;;;;;;5028601;28;20049;-70
2022/09/21 00:33:45;;;;;;;0.10;0.10;;;11.50;99.90;;;;;;5034528;28;20045;-70
2022/09/21 00:36:16;;;;;;;0.10;0.10;;;11.50;99.90;;;;;;5024088;28;20167;-70
2022/09/21 00:38:42;;;;;;;0.68;0.68;;;11.50;99.90;;;;;;5019071;28;20363;-70
2022/09/21 00:41:11;;;;;;;0.10;0.10;;;11.50;99.90;;;;;;5023597;28;20128;-70
2022/09/21 00:43:43;;;;;;;0.15;0.15;;;11.60;99.90;;;;;;5034468;28;20052;-70
2022/09/21 00:46:30;;;;;;;0.10;0.10;;;11.50;99.90;;;;;;5030886;28;20041;-70
2022/09/21 00:48:57;;;;;;;0.43;0.43;;;11.50;99.90;;;;;;5026633;28;20049;-70
2022/09/21 00:51:24;;;;;;;0.20;0.20;;;11.40;99.90;;;;;;5035361;28;20383;-70
2022/09/21 00:53:55;;;;;;;0.10;0.10;;;11.40;99.90;;;;;;5021856;28;20141;-70
2022/09/21 00:56:22;;;;;;;0.10;0.10;;;11.40;99.90;;;;;;5037609;28;20486;-70
2022/09/21 00:58:51;;;;;;;0.20;0.20;;;11.40;99.90;;;;;;5034493;28;20552;-70
2022/09/21 01:01:17;;;;;;;0.20;0.20;;;11.40;99.90;;;;;;5025870;28;20077;-70
2022/09/21 01:03:45;;;;;;;0.10;0.10;;;11.40;99.90;;;;;;5029850;28;20045;-70
2022/09/21 01:06:17;;;;;;;0.20;0.20;;;11.40;99.90;;;;;;5023084;28;20053;-70
2022/09/21 01:08:44;;;;;;;0.32;0.28;;;11.40;99.90;;;;;;5021224;28;20485;-70
2022/09/21 01:11:24;;;;;;;0.10;0.10;;;11.40;99.90;;;;;;5018258;28;20501;-70
2022/09/21 01:13:50;;;;;;;0.00;0.00;;;11.30;99.90;;;;;;5019265;28;20473;-70
2022/09/21 01:16:19;;;;;;;6.50;2.05;;;11.30;99.90;;;;;;5020637;28;20088;-70
2022/09/21 01:19:23;;;;;;;0.10;0.10;;;11.30;99.90;;;;;;5026532;28;20120;-70
2022/09/21 01:22:14;;;;;;;0.15;0.15;;;11.30;99.90;;;;;;5026704;28;20128;-70
2022/09/21 01:25:09;;;;;;;0.10;0.10;;;11.20;99.90;;;;;;5019128;28;20053;-70
2022/09/21 01:27:48;;;;;;;1.45;1.30;;;11.20;99.90;;;;;;5020882;28;20482;-70
2022/09/21 01:30:17;;;;;;;7.57;0.75;;;11.20;99.90;;;;;;5029395;28;20375;-70
2022/09/21 01:32:49;;;;;;;0.10;0.10;;;11.10;99.90;;;;;;5025381;28;21991;-70
2022/09/21 01:35:23;;;;;;;0.00;0.00;;;11.10;99.90;;;;;;5023694;28;20485;-70
2022/09/21 01:38:00;;;;;;;0.50;0.50;;;11.10;99.90;;;;;;5018462;28;20242;-70
2022/09/21 01:40:42;;;;;;;0.15;0.15;;;11.10;99.90;;;;;;5024732;28;20054;-70
2022/09/21 01:43:13;;;;;;;0.10;0.10;;;11.10;99.90;;;;;;5027036;28;20373;-70
2022/09/21 01:45:44;;;;;;;0.17;0.17;;;11.00;99.90;;;;;;5026076;28;20116;-70
2022/09/21 01:48:12;;;;;;;0.20;0.20;;;11.00;99.90;;;;;;5027166;28;20045;-70
2022/09/21 01:50:43;;;;;;;0.10;0.10;;;11.00;99.90;;;;;;5020707;28;20049;-70
2022/09/21 01:53:43;;;;;;;0.10;0.10;;;11.00;99.90;;;;;;5039265;28;20041;-70
2022/09/21 01:56:18;;;;;;;0.10;0.10;;;10.90;99.90;;;;;;5016033;28;20062;-70
2022/09/21 01:58:46;;;;;;;0.10;0.10;;;10.90;99.90;;;;;;5030248;28;20055;-70
2022/09/21 02:01:15;;;;;;;0.10;0.10;;;10.90;99.90;;;;;;5021939;28;20077;-70
2022/09/21 02:03:47;;;;;;;0.30;0.30;;;10.90;99.90;;;;;;5020333;28;20049;-70
2022/09/21 02:06:14;;;;;;;0.10;0.10;;;10.80;99.90;;;;;;5041761;28;20044;-70
2022/09/21 02:08:40;;;;;;;0.10;0.10;;;10.80;99.90;;;;;;5025578;28;20041;-70
2022/09/21 02:11:06;;;;;;;0.10;0.10;;;10.70;99.90;;;;;;5029333;28;20060;-70
2022/09/21 02:13:40;;;;;;;0.10;0.10;;;10.70;99.90;;;;;;5036922;28;20124;-70
2022/09/21 02:16:05;;;;;;;0.00;0.00;;;10.70;99.90;;;;;;5033956;28;20045;-70
2022/09/21 02:18:56;;;;;;;0.17;0.17;;;10.70;99.90;;;;;;5043382;28;20064;-70
2022/09/21 02:21:48;;;;;;;0.10;0.10;;;10.70;99.90;;;;;;5025219;28;20644;-69
2022/09/21 02:24:38;;;;;;;0.08;0.08;;;10.60;99.90;;;;;;5023792;28;20077;-70
2022/09/21 02:27:34;;;;;;;0.10;0.10;;;10.60;99.90;;;;;;5029501;28;20059;-69
2022/09/21 02:30:09;;;;;;;0.20;0.20;;;10.60;99.90;;;;;;5022584;28;20077;-70
2022/09/21 02:33:00;;;;;;;0.10;0.10;;;10.60;99.90;;;;;;5023273;28;20409;-70
2022/09/21 02:35:39;;;;;;;0.10;0.10;;;10.50;99.90;;;;;;5033730;28;20057;-70
2022/09/21 02:38:05;;;;;;;1.45;0.80;;;10.50;99.90;;;;;;5023925;28;20049;-70
2022/09/21 02:40:37;;;;;;;0.10;0.10;;;10.50;99.90;;;;;;5018736;28;20042;-70
2022/09/21 02:43:14;;;;;;;0.00;0.00;;;10.50;99.90;;;;;;5038033;28;20164;-70
2022/09/21 02:45:49;;;;;;;0.10;0.10;;;10.50;99.90;;;;;;5023922;28;20510;-70
2022/09/21 02:48:20;;;;;;;0.10;0.10;;;10.50;99.90;;;;;;5020055;28;20363;-70
2022/09/21 02:50:55;;;;;;;0.20;0.20;;;10.50;99.90;;;;;;5039361;28;20123;-70
2022/09/21 02:53:25;;;;;;;0.10;0.10;;;10.50;99.90;;;;;;5022192;28;20480;-70
2022/09/21 02:55:53;;;;;;;0.00;0.00;;;10.50;99.90;;;;;;5038713;28;20041;-70
2022/09/21 02:58:23;;;;;;;0.10;0.10;;;10.50;99.90;;;;;;5048418;28;20053;-70
2022/09/21 03:00:48;;;;;;;0.10;0.10;;;10.50;99.90;;;;;;5030823;28;20417;-70
2022/09/21 03:03:23;;;;;;;0.10;0.10;;;10.50;99.90;;;;;;5027546;28;20029;-70
2022/09/21 03:05:52;;;;;;;0.88;0.88;;;10.40;99.90;;;;;;5038757;28;20049;-70
2022/09/21 03:08:18;;;;;;;0.10;0.10;;;10.40;99.90;;;;;;5029868;28;20623;-70
2022/09/21 03:10:43;;;;;;;0.10;0.10;;;10.40;99.90;;;;;;5037816;28;20057;-70
2022/09/21 03:13:10;;;;;;;0.30;0.30;;;10.40;99.90;;;;;;5032873;28;20045;-69
2022/09/21 03:15:37;;;;;;;0.20;0.20;;;10.40;99.90;;;;;;5033752;28;20044;-70
2022/09/21 03:18:04;;;;;;;0.10;0.10;;;10.30;99.90;;;;;;5032007;28;20030;-70
2022/09/21 03:20:33;;;;;;;0.00;0.00;;;10.30;99.90;;;;;;5028208;28;20042;-70
2022/09/21 03:22:59;;;;;;;0.10;0.10;;;10.30;99.90;;;;;;5029047;28;20045;-70
2022/09/21 03:25:26;;;;;;;0.10;0.10;;;10.30;99.90;;;;;;5037278;28;20405;-69
2022/09/21 03:27:54;;;;;;;0.10;0.10;;;10.30;99.90;;;;;;5023587;28;20030;-69
2022/09/21 03:30:21;;;;;;;0.10;0.10;;;10.20;99.90;;;;;;5034489;28;20045;-69
2022/09/21 03:32:53;;;;;;;0.10;0.10;;;10.20;99.90;;;;;;5029086;28;20054;-69
2022/09/21 03:35:21;;;;;;;1.45;1.08;;;10.20;99.90;;;;;;5024390;28;20065;-69
2022/09/21 03:37:48;;;;;;;0.10;0.10;;;10.20;99.90;;;;;;5034665;28;20037;-69
2022/09/21 03:40:15;;;;;;;0.20;0.20;;;10.20;99.90;;;;;;5019805;28;20045;-70
2022/09/21 03:42:42;;;;;;;0.10;0.10;;;10.10;99.90;;;;;;5029125;28;20048;-70
2022/09/21 03:45:08;;;;;;;0.10;0.10;;;10.20;99.90;;;;;;5027188;28;20038;-70
2022/09/21 03:47:35;;;;;;;0.10;0.10;;;10.20;99.90;;;;;;5030969;28;20505;-70
2022/09/21 03:50:00;;;;;;;0.00;0.00;;;10.10;99.90;;;;;;5015618;28;20204;-69
2022/09/21 03:52:26;;;;;;;0.20;0.20;;;10.10;99.90;;;;;;5023833;28;20119;-69
2022/09/21 03:54:51;;;;;;;0.00;0.00;;;10.10;99.90;;;;;;5027216;28;20046;-70
2022/09/21 03:57:17;;;;;;;0.08;0.08;;;10.10;99.90;;;;;;5019418;28;20096;-70
2022/09/21 03:59:42;;;;;;;0.10;0.10;;;10.00;99.90;;;;;;5027683;28;20065;-70
2022/09/21 04:02:08;;;;;;;0.10;0.10;;;10.00;99.90;;;;;;5034323;28;20052;-70
2022/09/21 04:04:34;;;;;;;0.32;0.32;;;10.00;99.90;;;;;;5040442;28;20396;-70
2022/09/21 04:06:59;;;;;;;0.30;0.30;;;10.00;99.90;;;;;;5028563;28;20096;-70
2022/09/21 04:09:25;;;;;;;0.10;0.10;;;10.00;99.90;;;;;;5019783;28;20041;-70
2022/09/21 04:11:52;;;;;;;0.00;0.00;;;10.00;99.90;;;;;;5040030;28;20130;-70
2022/09/21 04:14:18;;;;;;;0.10;0.10;;;10.00;99.90;;;;;;5036457;28;20115;-70
2022/09/21 04:16:44;;;;;;;0.35;0.35;;;9.90;99.90;;;;;;5025698;28;20053;-70
2022/09/21 04:19:10;;;;;;;0.10;0.10;;;9.90;99.90;;;;;;5022608;28;20124;-69
2022/09/21 04:21:35;;;;;;;0.03;0.03;;;9.80;99.90;;;;;;5026429;28;20080;-69
2022/09/21 04:24:03;;;;;;;0.10;0.10;;;9.80;99.90;;;;;;5026311;28;20053;-69
2022/09/21 04:26:31;;;;;;;0.10;0.10;;;9.70;99.90;;;;;;5025611;28;20116;-69
2022/09/21 04:28:58;;;;;;;0.10;0.10;;;9.80;99.90;;;;;;5034408;28;20045;-69
2022/09/21 04:31:24;;;;;;;0.32;0.32;;;9.80;99.90;;;;;;5023663;28;20437;-69
2022/09/21 04:33:51;;;;;;;0.10;0.10;;;9.80;99.90;;;;;;5020948;28;20076;-69
2022/09/21 04:36:18;;;;;;;0.63;0.30;;;9.90;99.90;;;;;;5042481;28;20496;-69
2022/09/21 04:38:45;;;;;;;0.30;0.30;;;9.80;99.90;;;;;;5028367;28;20036;-69
2022/09/21 04:41:11;;;;;;;0.10;0.10;;;9.80;99.90;;;;;;5027847;28;20481;-69
2022/09/21 04:43:37;;;;;;;0.10;0.10;;;9.80;99.90;;;;;;5029142;28;20088;-70
2022/09/21 04:46:08;;;;;;;0.32;0.32;;;9.80;99.90;;;;;;5024125;28;20132;-70
2022/09/21 04:48:34;;;;;;;0.30;0.30;;;9.80;99.90;;;;;;5035199;28;20132;-69
2022/09/21 04:51:00;;;;;;;0.00;0.00;;;9.80;99.90;;;;;;5020657;28;20050;-70
2022/09/21 04:53:26;;;;;;;0.10;0.10;;;9.80;99.90;;;;;;5025077;28;20050;-70
2022/09/21 04:55:51;;;;;;;0.10;0.10;;;9.80;99.90;;;;;;5025095;28;21948;-70
2022/09/21 04:58:17;;;;;;;0.10;0.10;;;9.70;99.90;;;;;;5020718;28;20080;-70
2022/09/21 05:00:42;;;;;;;0.93;0.63;;;9.70;99.90;;;;;;5026514;28;20529;-70
2022/09/21 05:03:08;;;;;;;0.40;0.40;;;9.70;99.90;;;;;;5025463;28;20061;-70
2022/09/21 05:05:34;;;;;;;0.08;0.08;;;9.70;99.90;;;;;;5013289;28;20042;-70
2022/09/21 05:07:59;;;;;;;0.10;0.10;;;9.80;99.90;;;;;;5031249;28;20496;-70
2022/09/21 05:10:25;;;;;;;0.08;0.08;;;9.70;99.90;;;;;;5026678;28;20445;-69
2022/09/21 05:12:51;;;;;;;0.20;0.20;;;9.70;99.90;;;;;;5028496;28;20042;-70
2022/09/21 05:15:17;;;;;;;0.10;0.10;;;9.70;99.90;;;;;;5023036;28;20081;-69
2022/09/21 05:17:43;;;;;;;0.30;0.30;;;9.60;99.90;;;;;;5027366;28;20095;-69
2022/09/21 05:20:09;;;;;;;0.10;0.10;;;9.50;99.90;;;;;;5031907;28;20052;-69
2022/09/21 05:22:35;;;;;;;0.13;0.13;;;9.60;99.90;;;;;;5032440;28;20055;-69
2022/09/21 05:25:00;;;;;;;0.80;0.80;;;9.60;99.90;;;;;;5025194;28;20448;-69
2022/09/21 05:27:26;;;;;;;0.10;0.10;;;9.60;99.90;;;;;;5034266;28;20487;-69
2022/09/21 05:29:52;;;;;;;0.10;0.10;;;9.60;99.90;;;;;;5026817;28;20048;-69
2022/09/21 05:32:57;;;;;;;0.10;0.10;;;9.60;99.90;;;;;;5020677;28;20042;-69
2022/09/21 05:35:41;;;;;;;0.00;0.00;;;9.60;99.90;;;;;;5023757;28;20049;-69
2022/09/21 05:38:17;;;;;;;0.68;0.68;;;9.70;99.90;;;;;;5018800;28;20389;-69
2022/09/21 05:40:43;;;;;;;0.10;0.10;;;9.70;99.90;;;;;;5023579;28;20535;-69
2022/09/21 05:43:10;;;;;;;0.10;0.10;;;9.70;99.90;;;;;;5012473;28;20068;-69
2022/09/21 05:45:42;;;;;;;0.20;0.20;;;9.70;99.90;;;;;;5036386;28;20044;-69
2022/09/21 05:48:18;;;;;;;0.73;0.73;;;9.70;99.90;;;;;;5033997;28;20041;-69
2022/09/21 05:51:02;;;;;;;0.57;0.57;;;9.70;99.90;;;;;;5018839;28;20046;-70
2022/09/21 05:54:01;;;;;;;0.20;0.20;;;9.60;99.90;;;;;;5023623;28;20041;-70
2022/09/21 05:56:41;;;;;;;0.45;0.45;;;9.60;99.90;;;;;;5031202;28;20099;-69
2022/09/21 05:59:35;;;;;;;0.10;0.10;;;9.70;99.90;;;;;;5036167;28;20053;-69
2022/09/21 06:02:01;;;;;;;;;;;9.70;99.90;;;;;;5026318;28;20049;-69
2022/09/21 06:04:27;;;;;;;0.10;0.10;;;9.70;99.90;;;;;;5023735;28;19940;-69
2022/09/21 06:06:52;;;;;;;0.15;0.15;;;9.70;99.90;;;;;;5039585;28;20049;-69
2022/09/21 06:09:19;;;;;;;0.10;0.10;;;9.70;99.90;;;;;;5037369;28;20152;-69
2022/09/21 06:11:45;;;;;;;0.10;0.10;;;9.80;99.90;;;;;;5031093;28;20117;-69
2022/09/21 06:14:11;;;;;;;1.90;0.80;;;9.80;99.90;;;;;;5027143;28;20464;-69
2022/09/21 06:16:41;;;;;;;0.10;0.10;;;9.90;99.90;;;;;;5033052;28;20041;-69
2022/09/21 06:19:10;;;;;;;0.00;0.00;;;9.90;99.90;;;;;;5016003;28;20060;-69
2022/09/21 06:21:35;;;;;;;0.10;0.10;;;9.90;99.90;;;;;;5043964;28;20091;-69
2022/09/21 06:24:01;;;;;;;0.10;0.10;;;10.00;99.90;;;;;;5032771;28;20037;-69
2022/09/21 06:26:27;;;;;;;0.13;0.13;;;10.10;99.90;;;;;;5030714;28;20129;-69
2022/09/21 06:28:53;;;;;;;0.10;0.10;;;10.20;99.90;;;;;;5033473;28;20582;-68
2022/09/21 06:31:19;;;;;;;0.10;0.10;;;10.20;99.90;;;;;;5027492;28;20056;-69
2022/09/21 06:33:44;;;;;;;0.17;0.17;;;10.30;99.90;;;;;;5017978;28;20042;-69
2022/09/21 06:36:10;;;;;;;0.10;0.10;;;10.40;99.90;;;;;;5037385;28;20044;-69
2022/09/21 06:38:35;;;;;;;0.10;0.10;;;10.50;99.90;;;;;;5018066;28;20046;-69
2022/09/21 06:41:03;;;;;;;0.20;0.20;;;10.50;99.90;;;;;;5031573;28;20473;-69
2022/09/21 06:43:28;;;;;;;0.10;0.10;;;10.60;99.90;;;;;;5039505;28;20038;-69
2022/09/21 06:45:59;;;;;;;0.10;0.10;;;10.60;99.90;;;;;;5035362;28;20045;-69
2022/09/21 06:48:26;;;;;;;0.10;0.10;;;10.70;99.90;;;;;;5027194;28;20452;-69
2022/09/21 06:51:05;;;;;;;0.00;0.00;;;10.80;99.90;;;;;;5020376;28;20413;-69
2022/09/21 06:53:32;;;;;;;0.10;0.10;;;10.80;99.90;;;;;;5035848;28;20460;-69
2022/09/21 06:56:02;;;;;;;0.32;0.32;;;10.90;99.90;;;;;;5030682;28;20095;-69
2022/09/21 06:58:29;;;;;;;0.10;0.10;;;11.00;99.90;;;;;;5030272;28;20126;-69
2022/09/21 07:00:55;;;;;;;0.10;0.10;;;11.00;99.90;;;;;;5038460;28;20041;-69
2022/09/21 07:03:20;;;;;;;0.10;0.10;;;11.10;99.90;;;;;;5019932;28;20519;-69
2022/09/21 07:05:46;;;;;;;0.10;0.10;;;11.20;99.90;;;;;;5020726;28;20049;-69
2022/09/21 07:08:12;;;;;;;0.10;0.10;;;11.30;99.90;;;;;;5038834;28;20041;-69
2022/09/21 07:10:37;;;;;;;0.10;0.10;;;11.30;99.90;;;;;;5040650;28;20041;-69
2022/09/21 07:13:04;;;;;;;0.10;0.10;;;11.40;99.90;;;;;;5030332;28;20045;-69
2022/09/21 07:15:31;;;;;;;0.10;0.10;;;11.50;99.90;;;;;;5025880;28;20057;-69
2022/09/21 07:17:56;;;;;;;0.10;0.10;;;11.50;99.90;;;;;;5029796;28;20045;-70
2022/09/21 07:20:22;;;;;;;0.10;0.10;;;11.50;99.90;;;;;;5031216;28;20052;-69
2022/09/21 07:22:48;;;;;;;0.10;0.10;;;11.60;99.90;;;;;;5033163;28;20042;-69
2022/09/21 07:25:14;;;;;;;0.10;0.10;;;11.70;99.90;;;;;;5021836;28;20058;-69
2022/09/21 07:27:39;;;;;;;0.05;0.05;;;11.80;99.90;;;;;;5037968;28;20072;-69
2022/09/21 07:30:06;;;;;;;0.00;0.00;;;11.90;99.90;;;;;;5028352;28;20602;-69
2022/09/21 07:32:32;;;;;;;0.10;0.10;;;11.90;99.90;;;;;;5016535;28;20037;-69
2022/09/21 07:34:58;;;;;;;0.10;0.10;;;12.00;99.90;;;;;;5032144;28;20080;-70
2022/09/21 07:37:25;;;;;;;0.10;0.10;;;12.10;99.90;;;;;;5022212;28;20076;-70
2022/09/21 07:39:51;;;;;;;0.08;0.08;;;12.10;99.90;;;;;;5027520;28;20120;-70
2022/09/21 07:42:19;;;;;;;1.30;1.17;;;12.20;99.90;;;;;;5026211;28;20116;-70
2022/09/21 07:44:46;;;;;;;0.10;0.10;;;12.20;99.90;;;;;;5030757;28;20045;-70
2022/09/21 07:47:12;;;;;;;0.20;0.20;;;12.30;99.90;;;;;;5026268;28;20042;-70
2022/09/21 07:49:38;;;;;;;0.10;0.10;;;12.40;99.90;;;;;;5028933;28;20133;-70
2022/09/21 07:52:04;;;;;;;0.13;0.13;;;12.40;99.90;;;;;;5015592;28;20125;-70
2022/09/21 07:54:30;;;;;;;0.20;0.20;;;12.50;99.90;;;;;;5033932;28;20142;-70
2022/09/21 07:59:40;;;;;;;0.10;0.10;;;12.60;99.90;;;;;;5012532;28;20060;-70
2022/09/21 08:02:06;;;;;;;0.10;0.10;;;12.70;99.90;;;;;;5028868;28;20053;-70
2022/09/21 08:04:31;;;;;;;0.10;0.10;;;12.80;99.90;;;;;;5020508;28;20037;-71
2022/09/21 08:06:57;;;;;;;1.55;1.23;;;12.90;99.90;;;;;;5049328;28;20049;-71
2022/09/21 08:09:22;;;;;;;0.10;0.10;;;13.00;99.90;;;;;;5048048;28;20048;-71
2022/09/21 08:11:48;;;;;;;0.20;0.20;;;13.00;99.90;;;;;;5048056;28;20175;-71
2022/09/21 08:14:18;;;;;;;0.10;0.10;;;13.10;99.90;;;;;;5029770;28;20086;-71
2022/09/21 08:16:45;;;;;;;0.10;0.10;;;13.10;99.90;;;;;;5039173;28;20905;-71
2022/09/21 08:19:12;;;;;;;0.20;0.20;;;13.20;99.90;;;;;;5015802;28;20037;-70
2022/09/21 08:21:38;;;;;;;0.00;0.00;;;13.30;99.90;;;;;;5022770;28;20754;-70
2022/09/21 08:24:03;;;;;;;0.00;0.00;;;13.40;99.90;;;;;;5027854;28;20045;-70
2022/09/21 08:26:29;;;;;;;0.00;0.00;;;13.50;99.90;;;;;;5029561;28;20041;-70
2022/09/21 08:28:57;;;;;;;0.03;0.03;;;13.50;99.90;;;;;;5048323;28;20037;-70
2022/09/21 08:31:23;;;;;;;0.60;0.60;;;13.60;99.90;;;;;;5035510;28;20073;-70
2022/09/21 08:33:49;;;;;;;0.00;0.00;;;13.70;99.90;;;;;;5048799;28;20049;-70
2022/09/21 08:36:16;;;;;;;0.10;0.10;;;13.70;99.90;;;;;;5048222;28;20052;-70
2022/09/21 08:38:41;;;;;;;0.00;0.00;;;13.90;99.90;;;;;;5046780;28;20084;-70
2022/09/21 08:41:39;;;;;;;0.32;0.32;;;14.90;99.90;;;;;;5028950;28;20099;-70
2022/09/21 08:44:15;;;;;;;0.10;0.10;;;16.20;99.90;;;;;;5046914;28;20053;-70
2022/09/21 08:46:42;;;;;;;0.13;0.13;;;17.20;99.90;;;;;;5042559;28;20485;-70
2022/09/21 08:49:19;;;;;;;0.10;0.10;;;18.00;99.90;;;;;;5027054;28;20039;-70
2022/09/21 08:51:56;;;;;;;0.10;0.10;;;18.70;99.90;;;;;;5008584;28;20125;-70
2022/09/21 08:54:54;;;;;;;0.05;0.05;;;19.40;99.90;;;;;;5014771;28;20043;-70
2022/09/21 08:57:21;;;;;;;0.00;0.00;;;19.60;99.90;;;;;;5042129;28;20107;-70
2022/09/21 08:59:48;;;;;;;0.10;0.10;;;19.90;99.90;;;;;;5020179;28;20533;-70
2022/09/21 09:02:32;;;;;;;0.00;0.00;;;20.00;99.90;;;;;;5029254;28;20133;-70
2022/09/21 09:04:57;;;;;;;;;;;19.20;99.90;;;;;;5022812;28;20779;-70
2022/09/21 09:07:47;;;;;;;1.77;1.35;;;18.80;99.90;;;;;;5045764;28;19947;-70
2022/09/21 09:10:37;;;;;;;5.72;0.85;;;18.00;99.90;;;;;;5044548;28;20049;-70
2022/09/21 09:13:15;;;;;;;0.00;0.00;;;18.10;99.90;;;;;;5029908;28;20119;-70
2022/09/21 09:15:57;;;;;;;0.28;0.28;;;18.80;99.90;;;;;;5032435;28;20124;-69
2022/09/21 09:18:49;;;;;;;0.05;0.05;;;19.00;99.90;;;;;;5025280;28;20106;-70
2022/09/21 09:21:33;;;;;;;0.00;0.00;;;19.30;99.90;;;;;;5013710;28;20056;-70
2022/09/21 09:24:07;;;;;;;0.20;0.20;;;19.90;99.90;;;;;;5024867;28;20045;-71
2022/09/21 09:26:43;;;;;;;0.00;0.00;;;20.00;99.90;;;;;;5031341;28;20124;-71
2022/09/21 09:29:16;;;;;;;0.10;0.10;;;20.50;99.60;;;;;;5031436;28;20042;-71
2022/09/21 09:31:42;;;;;;;0.08;0.08;;;20.70;99.90;;;;;;5025124;28;20740;-71
2022/09/21 09:34:10;;;;;;;0.10;0.10;;;21.00;99.90;;;;;;5030681;28;20475;-72
2022/09/21 09:36:38;;;;;;;0.55;0.30;;;20.70;98.90;;;;;;5023626;28;20052;-73
2022/09/21 09:39:13;;;;;;;0.00;0.00;;;19.80;98.80;;;;;;5030883;28;20029;-73
2022/09/21 09:41:43;;;;;;;0.08;0.08;;;18.90;99.50;;;;;;5019503;28;20049;-72
2022/09/21 09:44:43;;;;;;;0.08;0.08;;;18.10;99.90;;;;;;5022577;28;20054;-72
2022/09/21 09:47:27;;;;;;;0.30;0.30;;;17.50;99.90;;;;;;5013560;28;20402;-72
2022/09/21 09:50:07;;;;;;;0.00;0.00;;;17.10;99.90;;;;;;5049059;28;20099;-72
2022/09/21 09:52:33;;;;;;;0.10;0.10;;;16.90;99.90;;;;;;5033748;28;20069;-72
2022/09/21 09:55:00;;;;;;;0.00;0.00;;;17.20;99.90;;;;;;5032981;28;20434;-72
2022/09/21 09:57:31;;;;;;;0.08;0.08;;;17.50;99.90;;;;;;5028805;28;20482;-72
2022/09/21 10:00:02;;;;;;;0.10;0.10;;;17.30;99.90;;;;;;5028950;28;20128;-72
2022/09/21 10:02:28;;;;;;;0.30;0.30;;;17.70;99.90;;;;;;5031409;28;20051;-72
2022/09/21 10:04:59;;;;;;;0.00;0.00;;;18.00;99.90;;;;;;5047562;28;20041;-74
2022/09/21 10:07:41;;;;;;;0.00;0.00;;;18.00;99.90;;;;;;5041361;28;20603;-71
2022/09/21 10:10:28;;;;;;;0.10;0.10;;;17.50;99.90;;;;;;5038435;28;20505;-71
2022/09/21 10:13:00;;;;;;;0.00;0.00;;;17.50;99.90;;;;;;5029021;28;20132;-71
2022/09/21 10:15:28;;;;;;;0.00;0.00;;;17.90;99.90;;;;;;5053026;28;20098;-71
2022/09/21 10:18:06;;;;;;;0.00;0.00;;;18.10;99.90;;;;;;5041529;28;20488;-70
2022/09/21 10:20:32;;;;;;;0.10;0.10;;;18.60;99.90;;;;;;5029464;28;20045;-70
2022/09/21 10:22:59;;;;;;;0.70;0.70;;;18.80;99.90;;;;;;5040736;28;20079;-71
2022/09/21 10:25:25;;;;;;;0.15;0.15;;;18.40;99.90;;;;;;5024307;28;20073;-70
2022/09/21 10:27:51;;;;;;;0.05;0.05;;;18.00;99.90;;;;;;5030126;28;20076;-70
2022/09/21 10:30:29;;;;;;;0.17;0.17;;;17.60;99.90;;;;;;5031815;28;20046;-70
2022/09/21 10:32:57;;;;;;;0.00;0.00;;;17.40;99.90;;;;;;5035141;28;20036;-70
2022/09/21 10:35:23;;;;;;;0.00;0.00;;;17.40;99.90;;;;;;5048700;28;20053;-70
2022/09/21 10:38:15;;;;;;;0.03;0.03;;;17.30;99.90;;;;;;5033926;28;20042;-70
2022/09/21 10:40:42;;;;;;;0.00;0.00;;;17.10;99.90;;;;;;5034531;28;20056;-70
2022/09/21 10:43:24;;;;;;;0.00;0.00;;;17.00;99.90;;;;;;5033068;28;20083;-70
2022/09/21 10:45:55;;;;;;;0.10;0.10;;;16.90;99.90;;;;;;5052071;28;20183;-69
2022/09/21 10:48:23;;;;;;;0.03;0.03;;;16.70;99.90;;;;;;5036402;28;20409;-69
2022/09/21 10:50:50;;;;;;;0.10;0.10;;;17.10;99.90;;;;;;5047991;28;20445;-70
2022/09/21 10:53:28;;;;;;;0.95;0.47;;;16.90;99.90;;;;;;5030446;28;20049;-70
2022/09/21 10:56:01;;;;;;;0.10;0.10;;;16.90;99.90;;;;;;5032098;28;20049;-70
2022/09/21 10:58:27;;;;;;;0.10;0.10;;;16.90;99.90;;;;;;5012138;28;20041;-70
2022/09/21 11:00:54;;;;;;;0.10;0.10;;;16.80;99.90;;;;;;5036538;28;20048;-70
2022/09/21 11:03:45;;;;;;;0.00;0.00;;;17.20;99.90;;;;;;5052078;28;20049;-70
2022/09/21 11:06:21;;;;;;;0.00;0.00;;;17.40;99.90;;;;;;5042716;28;20140;-70
2022/09/21 11:08:53;;;;;;;0.00;0.00;;;18.00;99.90;;;;;;5044075;28;20087;-70
2022/09/21 11:11:43;;;;;;;0.10;0.10;;;18.50;99.90;;;;;;5033125;28;20050;-70
2022/09/21 11:14:25;;;;;;;0.00;0.00;;;18.90;99.90;;;;;;5026817;28;20116;-70
2022/09/21 11:17:08;;;;;;;0.00;0.00;;;19.10;99.20;;;;;;5046077;28;20045;-70
2022/09/21 11:19:53;;;;;;;0.10;0.10;;;19.40;99.70;;;;;;5032198;28;20053;-70
2022/09/21 11:22:46;;;;;;;0.10;0.10;;;19.70;99.20;;;;;;5029252;28;20049;-70
2022/09/21 11:25:23;;;;;;;0.00;0.00;;;19.90;98.50;;;;;;5030484;28;20068;-70
2022/09/21 11:27:56;;;;;;;0.00;0.00;;;20.20;98.20;;;;;;5031762;28;20385;-70
2022/09/21 11:30:31;;;;;;;0.00;0.00;;;20.50;97.50;;;;;;5030171;28;20171;-70
2022/09/21 11:33:09;;;;;;;0.13;0.13;;;20.60;95.50;;;;;;5039689;28;20420;-71
2022/09/21 11:35:41;;;;;;;0.10;0.10;;;20.70;97.00;;;;;;5041673;28;20049;-71
2022/09/21 11:38:40;;;;;;;0.00;0.00;;;20.80;98.50;;;;;;5032872;28;20048;-71
2022/09/21 11:41:36;;;;;;;0.25;0.25;;;21.10;97.70;;;;;;5032546;28;20049;-71
2022/09/21 11:44:16;;;;;;;0.00;0.00;;;21.20;97.60;;;;;;5026735;28;20124;-71
2022/09/21 11:47:06;;;;;;;0.00;0.00;;;21.60;97.90;;;;;;5031002;28;20049;-71
2022/09/21 11:49:53;;;;;;;0.93;0.60;;;21.80;98.80;;;;;;5040101;28;20056;-71
2022/09/21 11:52:46;;;;;;;0.00;0.00;;;21.80;98.20;;;;;;5039666;28;20049;-71
2022/09/21 11:55:50;;;;;;;0.00;0.00;;;22.00;97.80;;;;;;5023672;28;20171;-71
2022/09/21 11:58:38;;;;;;;0.00;0.00;;;21.90;96.60;;;;;;5007634;28;20131;-71
2022/09/21 12:01:22;;;;;;;0.00;0.00;;;22.10;96.20;;;;;;5031439;28;20055;-71
2022/09/21 12:04:19;;;;;;;0.00;0.00;;;21.60;94.00;;;;;;5045460;28;20038;-72
2022/09/21 12:06:52;;;;;;;0.00;0.00;;;21.30;95.00;;;;;;5043193;28;20044;-71
2022/09/21 12:09:48;;;;;;;0.38;0.17;;;21.50;94.80;;;;;;5029138;28;20480;-71
2022/09/21 12:12:40;;;;;;;0.03;0.03;;;21.40;94.30;;;;;;5038318;28;20632;-71
2022/09/21 12:15:26;;;;;;;0.00;0.00;;;21.60;95.30;;;;;;5030490;28;20397;-71
2022/09/21 12:17:51;;;;;;;0.00;0.00;;;22.00;95.40;;;;;;5027394;28;20054;-73
2022/09/21 12:20:22;;;;;;;0.52;0.52;;;22.10;94.80;;;;;;5027666;28;20132;-71
2022/09/21 12:22:55;;;;;;;0.00;0.00;;;22.30;94.80;;;;;;5025506;28;20180;-72
2022/09/21 12:25:34;;;;;;;0.00;0.00;;;22.10;95.00;;;;;;5022315;28;20404;-71
2022/09/21 12:28:11;;;;;;;0.00;0.00;;;22.10;94.20;;;;;;5038134;28;20420;-72
2022/09/21 12:30:40;;;;;;;0.00;0.00;;;22.40;93.50;;;;;;5033510;28;20125;-72
2022/09/21 12:33:24;;;;;;;0.00;0.00;;;22.70;93.70;;;;;;5028787;28;20121;-71
2022/09/21 12:36:13;;;;;;;0.00;0.00;;;22.70;93.70;;;;;;5044919;28;20124;-69
2022/09/21 12:39:04;;;;;;;0.00;0.00;;;22.90;94.90;;;;;;5033906;28;20041;-71
2022/09/21 12:41:55;;;;;;;0.10;0.10;;;22.70;95.00;;;;;;5030301;28;20058;-71
2022/09/21 12:44:53;;;;;;;0.00;0.00;;;22.40;94.00;;;;;;5036467;28;20041;-71
2022/09/21 12:47:46;;;;;;;0.00;0.00;;;23.00;94.50;;;;;;5016660;28;20045;-71
2022/09/21 12:50:33;;;;;;;0.80;0.80;;;22.30;93.70;;;;;;5033247;28;20057;-71
2022/09/21 12:53:00;;;;;;;0.00;0.00;;;21.80;93.50;;;;;;5024641;28;20095;-70
2022/09/21 12:55:47;;;;;;;0.00;0.00;;;21.50;95.50;;;;;;5029418;28;20049;-71
2022/09/21 12:58:35;;;;;;;0.00;0.00;;;22.20;94.80;;;;;;5021445;28;20433;-70
2022/09/21 13:01:05;;;;;;;2.95;0.88;;;21.60;94.40;;;;;;5033923;28;20072;-71
2022/09/21 13:03:42;;;;;;;2.38;1.27;;;21.80;95.20;;;;;;5026583;28;20045;-71
2022/09/21 13:06:39;;;;;;;0.55;0.55;;;22.30;95.30;;;;;;5028154;28;20065;-71
2022/09/21 13:09:08;;;;;;;0.00;0.00;;;22.60;94.80;;;;;;5027935;28;20057;-71
2022/09/21 13:11:34;;;;;;;0.00;0.00;;;23.00;93.60;;;;;;5030584;28;20092;-71
2022/09/21 13:14:03;;;;;;;0.00;0.00;;;22.10;92.80;;;;;;5028178;28;20068;-71
2022/09/21 13:16:30;;;;;;;0.00;0.00;;;22.70;94.80;;;;;;5025373;28;20069;-71
2022/09/21 13:19:01;;;;;;;0.00;0.00;;;22.80;94.70;;;;;;5029279;28;20067;-72